Latest Coastal Weather Observations for Hindmarsh Island

IDS60701

Issued at 12:55 pm CST Thursday 24 April 2014 (issued every 10 minutes, with the page automatically refreshed every 10 minutes)

About coastal observations | Map of coastal stations | Coastal observations for SA | Marine services | Other Formats
Station Details ID: 023894 Name: HINDMARSH ISLAND AWS Lat: -35.52 Lon: 138.82 Height: 11.0 m
Data from the previous 72 hours. | See also: Recent months at Hindmarsh Island
Date/Time
CST
Temp

°C
Wind Pressure Rain
since 9am
mm
Weather Cloud Vis
km
Sea
Height
m
Swell
Dir
 
Speed
knots
Gust
knots
hPa Trend Height
m
Period
s
Dir
24/12:30pm 17.6 SSE 13 17 1018.8 - 0.0 - - - - - - -
24/12:00pm 17.6 SSE 13 17 1018.9 - 0.0 - - - - - - -
24/11:30am 17.5 SSE 13 16 1019.2 - 0.0 - - - - - - -
24/11:00am 17.6 S 15 18 1019.0 - 0.0 - - - - - - -
24/10:30am 17.1 S 18 21 1018.9 - 0.0 - - - - - - -
24/10:00am 16.5 S 18 21 1018.7 - 0.0 - - - - - - -
24/09:30am 16.2 S 17 21 1018.8 - 0.0 - - - - - - -
24/09:00am 16.1 S 18 21 1018.3 - 0.0 Haze Cloudy 6 - - - -
24/08:30am 15.9 S 18 21 1017.9 - 0.0 - - - - - - -
24/08:00am 15.6 S 20 26 1017.5 - 0.0 - - - - - - -
24/07:30am 15.0 S 18 24 1016.9 - 0.0 - - - - - - -
24/07:17am 16.2 S 16 26 1016.5 - 0.0 - - - - - - -
24/07:00am 16.0 S 17 21 1016.3 - 0.0 - - - - - - -
24/06:30am 15.7 S 17 23 1015.9 - 0.0 - - - - - - -
24/06:22am 16.2 SW 16 23 1015.8 - 0.0 - - - - - - -
24/06:00am 15.5 W 9 13 1015.5 - 0.0 - - - - - - -
24/05:30am 15.6 WSW 14 20 1015.3 - 0.0 - - - - - - -
24/05:00am 16.3 WSW 11 15 1014.8 - 0.0 - - - - - - -
24/04:30am 16.1 W 9 13 1014.6 - 0.0 - - - - - - -
24/04:00am 16.1 W 10 13 1014.1 - 0.0 - - - - - - -
24/03:30am 16.2 W 10 15 1014.0 - 0.0 - - - - - - -
24/03:00am 16.0 W 13 18 1013.8 - 0.0 - - - - - - -
24/02:30am 15.9 W 11 15 1014.0 - 0.0 - - - - - - -
24/02:00am 16.0 W 12 16 1014.0 - 0.0 - - - - - - -
24/01:30am 16.3 W 14 19 1014.3 - 0.0 - - - - - - -
24/01:00am 16.3 W 11 16 1014.2 - 0.0 - - - - - - -
24/12:30am 16.2 W 11 14 1014.3 - 0.0 - - - - - - -
24/12:00am 16.6 WSW 10 12 1014.5 - 0.0 - - - - - - -
 
Date/Time
CST
Temp

°C
Wind Pressure Rain
since 9am
mm
Weather Cloud Vis
km
Sea
Height
m
Swell
Dir
 
Speed
knots
Gust
knots
hPa Trend Height
m
Period
s
Dir
23/11:30pm 15.6 NW 3 5 1014.7 - 0.0 - - - - - - -
23/11:00pm 16.0 WNW 1 3 1014.9 - 0.0 - - - - - - -
23/10:30pm 15.9 NW 3 5 1014.8 - 0.0 - - - - - - -
23/10:00pm 16.3 WNW 4 7 1014.8 - 0.0 - - - - - - -
23/09:30pm 16.0 WNW 5 6 1014.8 - 0.0 - - - - - - -
23/09:00pm 16.2 W 4 5 1014.5 - 0.0 - - - - - - -
23/08:30pm 16.3 NNW 7 10 1014.5 - 0.0 - - - - - - -
23/08:00pm 16.3 N 8 11 1014.5 - 0.0 - - - - - - -
23/07:30pm 16.8 N 9 12 1014.3 - 0.0 - - - - - - -
23/07:00pm 16.7 NNW 7 9 1014.4 - 0.0 - - - - - - -
23/06:30pm 16.9 NNW 6 8 1014.3 - 0.0 - - - - - - -
23/06:00pm 17.8 NW 7 9 1013.9 - 0.0 - - - - - - -
23/05:30pm 18.9 NW 9 11 1014.0 - 0.0 - - - - - - -
23/05:00pm 20.3 NW 9 12 1013.9 - 0.0 - - - - - - -
23/04:30pm 20.1 NW 10 12 1013.7 - 0.0 - - - - - - -
23/04:00pm 20.3 NW 9 15 1013.7 - 0.0 - - - - - - -
23/03:30pm 21.1 NW 10 15 1013.8 - 0.0 - - - - - - -
23/03:00pm 21.6 NNW 8 12 1013.8 - 0.0 - - - - - - -
23/02:30pm 20.7 WNW 10 13 1014.2 - 0.0 - - - - - - -
23/02:00pm 20.7 W 10 13 1014.4 - 0.0 - - - - - - -
23/01:30pm 20.5 WNW 11 15 1014.7 - 0.0 - - - - - - -
23/01:00pm 19.9 S 6 9 1015.3 - 0.0 - - - - - - -
23/12:30pm 19.4 SSW 6 8 1015.9 - 0.0 - - - - - - -
23/12:00pm 19.2 S 5 7 1016.5 - 0.0 - - - - - - -
23/11:30am 18.4 S 4 5 1017.1 - 0.0 - - - - - - -
23/11:00am 18.4 WSW 5 7 1017.6 - 0.0 - - - - - - -
23/10:30am 18.5 N 4 7 1017.9 - 0.0 - - - - - - -
23/10:00am 16.6 N 5 7 1018.0 - 0.0 - - - - - - -
23/09:30am 15.1 N 5 7 1018.2 - 0.0 - - - - - - -
23/09:00am 13.5 NNW 2 5 1018.3 - 0.0 Fine Cloudy 10 - - - -
23/08:30am 11.8 NNW 5 6 1018.3 - 0.0 - - - - - - -
23/08:00am 10.6 NNW 5 6 1018.0 - 0.0 - - - - - - -
23/07:30am 10.6 N 5 7 1017.6 - 0.0 - - - - - - -
23/07:00am 10.0 NW 6 6 1017.5 - 0.0 - - - - - - -
23/06:30am 9.6 NNW 6 7 1017.3 - 0.0 - - - - - - -
23/06:00am 9.6 NNW 6 7 1017.1 - 0.0 - - - - - - -
23/05:30am 9.8 N 5 6 1017.2 - 0.0 - - - - - - -
23/05:00am 9.6 NNW 6 7 1017.3 - 0.0 - - - - - - -
23/04:30am 9.8 N 7 8 1017.1 - 0.0 - - - - - - -
23/04:00am 10.1 NW 5 6 1017.2 - 0.0 - - - - - - -
23/03:30am 10.0 N 7 8 1017.1 - 0.0 - - - - - - -
23/03:00am 10.3 N 6 8 1017.3 - 0.0 - - - - - - -
23/02:30am 11.0 NW 6 6 1017.5 - 0.0 - - - - - - -
23/02:00am 11.1 NW 6 7 1017.9 - 0.0 - - - - - - -
23/01:30am 10.5 NNW 5 6 1018.2 - 0.0 - - - - - - -
23/01:00am 11.0 NNW 4 4 1018.2 - 0.0 - - - - - - -
23/12:30am 11.3 NNW 4 5 1018.4 - 0.0 - - - - - - -
23/12:00am 12.0 NNW 6 6 1018.7 - 0.0 - - - - - - -
 
Date/Time
CST
Temp

°C
Wind Pressure Rain
since 9am
mm
Weather Cloud Vis
km
Sea
Height
m
Swell
Dir
 
Speed
knots
Gust
knots
hPa Trend Height
m
Period
s
Dir
22/11:30pm 12.4 NW 5 6 1018.8 - 0.0 - - - - - - -
22/11:00pm 12.5 NW 5 6 1018.9 - 0.0 - - - - - - -
22/10:30pm 12.4 NNW 4 5 1019.1 - 0.0 - - - - - - -
22/10:00pm 13.4 E 3 4 1019.1 - 0.0 - - - - - - -
22/09:30pm 15.0 S 6 8 1019.2 - 0.0 - - - - - - -
22/09:00pm 14.9 S 6 8 1019.1 - 0.0 - - - - - - -
22/08:30pm 14.9 S 6 7 1019.1 - 0.0 - - - - - - -
22/08:00pm 15.2 S 7 9 1019.1 - 0.0 - - - - - - -
22/07:30pm 15.5 S 8 10 1019.0 - 0.0 - - - - - - -
22/07:00pm 15.3 S 8 10 1018.8 - 0.0 - - - - - - -
22/06:30pm 15.3 S 9 11 1018.6 - 0.0 - - - - - - -
22/06:00pm 15.4 SSW 9 10 1018.3 - 0.0 - - - - - - -
22/05:30pm 15.9 S 11 13 1018.1 - 0.0 - - - - - - -
22/05:00pm 16.6 SSW 12 14 1017.8 - 0.0 - - - - - - -
22/04:30pm 16.6 S 12 15 1017.6 - 0.0 - - - - - - -
22/04:00pm 17.0 SSW 15 17 1017.5 - 0.0 - - - - - - -
22/03:30pm 17.2 SSW 14 16 1017.4 - 0.0 - - - - - - -
22/03:00pm 18.0 SSW 14 17 1017.1 - 0.0 - - - - - - -
22/02:30pm 17.5 SSW 14 18 1017.1 - 0.0 - - - - - - -
22/02:00pm 18.4 SSW 16 18 1016.9 - 0.0 - - - - - - -
22/01:30pm 18.4 SSW 15 18 1016.9 - 0.0 - - - - - - -
22/01:00pm 18.8 SSW 15 19 1017.0 - 0.0 - - - - - - -
22/12:30pm 18.4 SSW 16 18 1017.3 - 0.0 - - - - - - -
22/12:00pm 19.0 SSW 13 16 1017.4 - 0.0 - - - - - - -
22/11:30am 19.2 SSW 14 17 1017.5 - 0.0 - - - - - - -
22/11:00am 19.0 SSW 13 17 1017.6 - 0.0 - - - - - - -
22/10:30am 18.1 SSW 14 18 1017.5 - 0.0 - - - - - - -
22/10:00am 18.6 SSW 12 15 1017.3 - 0.0 - - - - - - -
22/09:30am 17.9 SSW 14 16 1017.3 - 0.0 - - - - - - -
22/09:00am 16.9 SSW 14 16 1017.0 - 1.0 Fine Mostly cloudy 10 - - - -
22/08:30am 17.3 SSW 15 17 1016.6 - 1.0 - - - - - - -
22/08:00am 16.5 S 15 18 1016.2 - 1.0 - - - - - - -
22/07:30am 16.4 SSW 17 20 1015.8 - 1.0 - - - - - - -
22/07:00am 16.3 SSW 18 21 1015.3 - 1.0 - - - - - - -
22/06:30am 16.4 SSW 19 22 1014.9 - 1.0 - - - - - - -
22/06:00am 16.5 SSW 15 21 1014.4 - 1.0 - - - - - - -
22/05:30am 16.7 SSW 13 16 1014.4 - 1.0 - - - - - - -
22/05:00am 16.5 SSW 12 15 1014.3 - 1.0 - - - - - - -
22/04:30am 16.5 SSW 16 18 1013.7 - 1.0 - - - - - - -
22/04:00am 16.4 SSW 17 20 1012.9 - 1.0 - - - - - - -
22/03:30am 16.8 SSW 16 19 1012.7 - 1.0 - - - - - - -
22/03:00am 17.4 SSW 11 13 1012.5 - 1.0 - - - - - - -
22/02:30am 17.3 SSW 8 9 1012.3 - 1.0 - - - - - - -
22/02:00am 17.2 SW 7 9 1012.5 - 1.0 - - - - - - -
22/01:30am 17.3 SSW 13 15 1012.2 - 1.0 - - - - - - -
22/01:00am 17.6 SSW 13 20 1012.1 - 1.0 - - - - - - -
22/12:30am 17.9 SW 18 23 1012.1 - 1.0 - - - - - - -
22/12:15am 17.4 WSW 15 25 1011.7 - 1.0 - - - - - - -
22/12:00am 17.7 N 11 15 1011.2 - 0.8 - - - - - - -
 
Date/Time
CST
Temp

°C
Wind Pressure Rain
since 9am
mm
Weather Cloud Vis
km
Sea
Height
m
Swell
Dir
 
Speed
knots
Gust
knots
hPa Trend Height
m
Period
s
Dir
21/11:30pm 18.5 N 6 8 1012.1 - 0.0 - - - - - - -
21/11:00pm 18.1 S 1 5 1011.2 - 0.0 - - - - - - -
21/10:30pm 19.0 WSW 8 13 1012.0 - 0.0 - - - - - - -
21/10:00pm 19.2 SW 14 18 1012.2 - 0.0 - - - - - - -
21/09:41pm 20.0 SW 15 21 1011.9 - 0.0 - - - - - - -
21/09:30pm 20.1 CALM 0 4 1011.2 - 0.0 - - - - - - -
21/09:00pm 20.1 SW 5 8 1011.2 - 0.0 - - - - - - -
21/08:30pm 20.3 W 4 5 1011.0 - 0.0 - - - - - - -
21/08:00pm 20.2 WSW 8 11 1011.1 - 0.0 - - - - - - -
21/07:30pm 21.7 WSW 7 11 1010.9 - 0.0 - - - - - - -
21/07:00pm 23.8 NNW 10 16 1010.3 - 0.0 - - - - - - -
21/06:30pm 24.0 NW 10 13 1010.3 - 0.0 - - - - - - -
21/06:00pm 25.2 NW 15 20 1010.0 - 0.0 - - - - - - -
21/05:30pm 25.3 WNW 12 16 1010.1 - 0.0 - - - - - - -
21/05:00pm 26.7 WNW 9 17 1009.7 - 0.0 - - - - - - -
21/04:30pm 27.2 NNW 12 19 1009.4 - 0.0 - - - - - - -
21/04:00pm 27.9 NNW 15 22 1009.5 - 0.0 - - - - - - -
21/03:30pm 28.7 NNW 19 27 1009.4 - 0.0 - - - - - - -
21/03:00pm 29.1 NNW 21 32 1009.1 - 0.0 - - - - - - -
21/02:30pm 28.7 NNW 22 33 1009.5 - 0.0 - - - - - - -
21/02:00pm 29.5 NW 22 33 1009.8 - 0.0 - - - - - - -
21/01:30pm 29.2 NNW 23 35 1009.9 - 0.0 - - - - - - -
21/01:00pm 27.9 NW 25 37 1010.0 - 0.0 - - - - - - -

Other Formats:

Comma delimited format used in spreadsheet applications
http://www.bom.gov.au/fwo/IDS60701/IDS60701.94677.axf

JavaScript Object Notation format (JSON) in row-major order
http://www.bom.gov.au/fwo/IDS60701/IDS60701.94677.json